sensor_id;sensor_type;location;lat;lon;timestamp;P1;durP1;ratioP1;P2;durP2;ratioP2
46897;SDS011;32646;50.958;6.258;2023-04-28T00:01:11;10.35;;;5.70;;
46897;SDS011;32646;50.958;6.258;2023-04-28T00:03:38;12.93;;;6.10;;
46897;SDS011;32646;50.958;6.258;2023-04-28T00:06:04;12.52;;;6.57;;
46897;SDS011;32646;50.958;6.258;2023-04-28T00:08:31;12.60;;;5.55;;
46897;SDS011;32646;50.958;6.258;2023-04-28T00:10:58;13.55;;;5.28;;
46897;SDS011;32646;50.958;6.258;2023-04-28T00:13:25;14.30;;;5.82;;
46897;SDS011;32646;50.958;6.258;2023-04-28T00:15:52;11.60;;;5.82;;
46897;SDS011;32646;50.958;6.258;2023-04-28T00:18:19;10.80;;;5.97;;
46897;SDS011;32646;50.958;6.258;2023-04-28T00:20:46;13.55;;;5.75;;
46897;SDS011;32646;50.958;6.258;2023-04-28T00:23:13;12.48;;;6.55;;
46897;SDS011;32646;50.958;6.258;2023-04-28T00:25:40;11.35;;;6.38;;
46897;SDS011;32646;50.958;6.258;2023-04-28T00:28:07;12.10;;;6.20;;
46897;SDS011;32646;50.958;6.258;2023-04-28T00:30:33;16.00;;;7.45;;
46897;SDS011;32646;50.958;6.258;2023-04-28T00:33:00;13.65;;;7.05;;
46897;SDS011;32646;50.958;6.258;2023-04-28T00:35:26;17.45;;;7.38;;
46897;SDS011;32646;50.958;6.258;2023-04-28T00:37:53;14.48;;;7.03;;
46897;SDS011;32646;50.958;6.258;2023-04-28T00:40:19;18.67;;;8.48;;
46897;SDS011;32646;50.958;6.258;2023-04-28T00:42:46;13.65;;;7.28;;
46897;SDS011;32646;50.958;6.258;2023-04-28T00:45:12;14.82;;;7.07;;
46897;SDS011;32646;50.958;6.258;2023-04-28T00:47:39;14.43;;;7.75;;
46897;SDS011;32646;50.958;6.258;2023-04-28T00:50:07;15.05;;;6.47;;
46897;SDS011;32646;50.958;6.258;2023-04-28T00:52:34;14.65;;;7.15;;
46897;SDS011;32646;50.958;6.258;2023-04-28T00:55:03;13.38;;;7.60;;
46897;SDS011;32646;50.958;6.258;2023-04-28T00:57:30;14.98;;;6.95;;
46897;SDS011;32646;50.958;6.258;2023-04-28T00:59:57;14.73;;;7.43;;
46897;SDS011;32646;50.958;6.258;2023-04-28T01:02:23;14.55;;;7.55;;
46897;SDS011;32646;50.958;6.258;2023-04-28T01:04:51;12.93;;;7.35;;
46897;SDS011;32646;50.958;6.258;2023-04-28T01:07:18;16.88;;;7.72;;
46897;SDS011;32646;50.958;6.258;2023-04-28T01:09:45;15.68;;;7.85;;
46897;SDS011;32646;50.958;6.258;2023-04-28T01:12:11;16.20;;;7.75;;
46897;SDS011;32646;50.958;6.258;2023-04-28T01:14:38;14.80;;;8.10;;
46897;SDS011;32646;50.958;6.258;2023-04-28T01:17:05;15.85;;;8.63;;
46897;SDS011;32646;50.958;6.258;2023-04-28T01:19:32;13.45;;;7.45;;
46897;SDS011;32646;50.958;6.258;2023-04-28T01:21:59;19.67;;;8.60;;
46897;SDS011;32646;50.958;6.258;2023-04-28T01:24:25;17.33;;;8.10;;
46897;SDS011;32646;50.958;6.258;2023-04-28T01:26:52;18.00;;;8.52;;
46897;SDS011;32646;50.958;6.258;2023-04-28T01:29:19;14.90;;;7.57;;
46897;SDS011;32646;50.958;6.258;2023-04-28T01:31:45;17.48;;;8.93;;
46897;SDS011;32646;50.958;6.258;2023-04-28T01:34:12;16.13;;;8.45;;
46897;SDS011;32646;50.958;6.258;2023-04-28T01:36:39;15.30;;;7.80;;
46897;SDS011;32646;50.958;6.258;2023-04-28T01:39:05;19.17;;;8.18;;
46897;SDS011;32646;50.958;6.258;2023-04-28T01:41:32;15.38;;;8.50;;
46897;SDS011;32646;50.958;6.258;2023-04-28T01:43:59;18.30;;;8.77;;
46897;SDS011;32646;50.958;6.258;2023-04-28T01:46:25;16.70;;;8.77;;
46897;SDS011;32646;50.958;6.258;2023-04-28T01:48:52;16.20;;;8.60;;
46897;SDS011;32646;50.958;6.258;2023-04-28T01:51:18;15.35;;;9.05;;
46897;SDS011;32646;50.958;6.258;2023-04-28T01:53:45;16.50;;;8.95;;
46897;SDS011;32646;50.958;6.258;2023-04-28T01:56:12;17.20;;;8.88;;
46897;SDS011;32646;50.958;6.258;2023-04-28T01:58:38;17.77;;;9.70;;
46897;SDS011;32646;50.958;6.258;2023-04-28T02:01:05;15.55;;;8.30;;
46897;SDS011;32646;50.958;6.258;2023-04-28T02:03:31;17.10;;;9.98;;
46897;SDS011;32646;50.958;6.258;2023-04-28T02:05:58;16.52;;;9.55;;
46897;SDS011;32646;50.958;6.258;2023-04-28T02:08:25;15.27;;;8.88;;
46897;SDS011;32646;50.958;6.258;2023-04-28T02:10:51;14.52;;;8.20;;
46897;SDS011;32646;50.958;6.258;2023-04-28T02:13:18;15.98;;;8.95;;
46897;SDS011;32646;50.958;6.258;2023-04-28T02:15:44;16.10;;;8.05;;
46897;SDS011;32646;50.958;6.258;2023-04-28T02:18:11;16.73;;;8.52;;
46897;SDS011;32646;50.958;6.258;2023-04-28T02:20:37;15.38;;;7.18;;
46897;SDS011;32646;50.958;6.258;2023-04-28T02:23:04;16.73;;;8.07;;
46897;SDS011;32646;50.958;6.258;2023-04-28T02:25:30;14.80;;;7.38;;
46897;SDS011;32646;50.958;6.258;2023-04-28T02:27:57;15.05;;;7.50;;
46897;SDS011;32646;50.958;6.258;2023-04-28T02:30:23;13.70;;;7.18;;
46897;SDS011;32646;50.958;6.258;2023-04-28T02:32:50;15.45;;;7.45;;
46897;SDS011;32646;50.958;6.258;2023-04-28T02:35:17;13.20;;;7.38;;
46897;SDS011;32646;50.958;6.258;2023-04-28T02:37:43;14.10;;;6.85;;
46897;SDS011;32646;50.958;6.258;2023-04-28T02:40:10;13.20;;;7.03;;
46897;SDS011;32646;50.958;6.258;2023-04-28T02:42:37;11.98;;;6.93;;
46897;SDS011;32646;50.958;6.258;2023-04-28T02:45:04;15.57;;;7.13;;
46897;SDS011;32646;50.958;6.258;2023-04-28T02:47:31;13.65;;;6.80;;
46897;SDS011;32646;50.958;6.258;2023-04-28T02:49:57;14.70;;;7.22;;
46897;SDS011;32646;50.958;6.258;2023-04-28T02:52:24;12.48;;;6.57;;
46897;SDS011;32646;50.958;6.258;2023-04-28T02:54:50;11.85;;;6.47;;
46897;SDS011;32646;50.958;6.258;2023-04-28T02:57:17;14.05;;;7.90;;
46897;SDS011;32646;50.958;6.258;2023-04-28T02:59:43;13.05;;;6.35;;
46897;SDS011;32646;50.958;6.258;2023-04-28T03:02:10;18.08;;;6.90;;
46897;SDS011;32646;50.958;6.258;2023-04-28T03:04:36;10.55;;;6.80;;
46897;SDS011;32646;50.958;6.258;2023-04-28T03:07:03;12.35;;;6.93;;
46897;SDS011;32646;50.958;6.258;2023-04-28T03:09:29;11.52;;;6.68;;
46897;SDS011;32646;50.958;6.258;2023-04-28T03:11:56;13.70;;;7.10;;
46897;SDS011;32646;50.958;6.258;2023-04-28T03:14:22;11.98;;;6.75;;
46897;SDS011;32646;50.958;6.258;2023-04-28T03:16:49;17.42;;;9.15;;
46897;SDS011;32646;50.958;6.258;2023-04-28T03:19:16;16.95;;;7.80;;
46897;SDS011;32646;50.958;6.258;2023-04-28T03:21:42;14.02;;;7.97;;
46897;SDS011;32646;50.958;6.258;2023-04-28T03:24:09;14.23;;;8.93;;
46897;SDS011;32646;50.958;6.258;2023-04-28T03:26:35;15.07;;;7.05;;
46897;SDS011;32646;50.958;6.258;2023-04-28T03:29:02;14.25;;;8.38;;
46897;SDS011;32646;50.958;6.258;2023-04-28T03:31:28;12.63;;;7.80;;
46897;SDS011;32646;50.958;6.258;2023-04-28T03:33:55;13.75;;;7.13;;
46897;SDS011;32646;50.958;6.258;2023-04-28T03:36:21;16.25;;;8.18;;
46897;SDS011;32646;50.958;6.258;2023-04-28T03:38:48;13.38;;;8.07;;
46897;SDS011;32646;50.958;6.258;2023-04-28T03:41:14;12.98;;;8.73;;
46897;SDS011;32646;50.958;6.258;2023-04-28T03:43:41;13.32;;;7.35;;
46897;SDS011;32646;50.958;6.258;2023-04-28T03:46:08;16.02;;;7.45;;
46897;SDS011;32646;50.958;6.258;2023-04-28T03:48:34;14.73;;;7.40;;
46897;SDS011;32646;50.958;6.258;2023-04-28T03:51:01;16.20;;;8.32;;
46897;SDS011;32646;50.958;6.258;2023-04-28T03:53:30;13.32;;;7.28;;
46897;SDS011;32646;50.958;6.258;2023-04-28T03:55:57;16.50;;;7.38;;
46897;SDS011;32646;50.958;6.258;2023-04-28T03:58:23;13.48;;;7.80;;
46897;SDS011;32646;50.958;6.258;2023-04-28T04:00:50;11.43;;;7.15;;
46897;SDS011;32646;50.958;6.258;2023-04-28T04:03:16;13.75;;;7.68;;
46897;SDS011;32646;50.958;6.258;2023-04-28T04:05:43;13.50;;;7.22;;
46897;SDS011;32646;50.958;6.258;2023-04-28T04:08:10;11.65;;;6.50;;
46897;SDS011;32646;50.958;6.258;2023-04-28T04:10:37;12.25;;;7.00;;
46897;SDS011;32646;50.958;6.258;2023-04-28T04:13:03;13.00;;;7.05;;
46897;SDS011;32646;50.958;6.258;2023-04-28T04:15:30;12.05;;;6.90;;
46897;SDS011;32646;50.958;6.258;2023-04-28T04:17:56;12.60;;;6.82;;
46897;SDS011;32646;50.958;6.258;2023-04-28T04:20:23;13.32;;;7.20;;
46897;SDS011;32646;50.958;6.258;2023-04-28T04:22:49;10.77;;;6.32;;
46897;SDS011;32646;50.958;6.258;2023-04-28T04:25:16;12.77;;;7.35;;
46897;SDS011;32646;50.958;6.258;2023-04-28T04:27:43;11.70;;;6.82;;
46897;SDS011;32646;50.958;6.258;2023-04-28T04:30:09;16.33;;;7.57;;
46897;SDS011;32646;50.958;6.258;2023-04-28T04:32:36;14.52;;;7.40;;
46897;SDS011;32646;50.958;6.258;2023-04-28T04:35:03;14.68;;;7.78;;
46897;SDS011;32646;50.958;6.258;2023-04-28T04:37:29;13.32;;;7.18;;
46897;SDS011;32646;50.958;6.258;2023-04-28T04:39:56;12.82;;;7.13;;
46897;SDS011;32646;50.958;6.258;2023-04-28T04:42:22;15.18;;;8.15;;
46897;SDS011;32646;50.958;6.258;2023-04-28T04:44:51;15.20;;;7.45;;
46897;SDS011;32646;50.958;6.258;2023-04-28T04:47:17;16.45;;;8.70;;
46897;SDS011;32646;50.958;6.258;2023-04-28T04:49:44;18.98;;;9.35;;
46897;SDS011;32646;50.958;6.258;2023-04-28T04:52:10;16.40;;;7.90;;
46897;SDS011;32646;50.958;6.258;2023-04-28T04:54:37;17.38;;;9.25;;
46897;SDS011;32646;50.958;6.258;2023-04-28T04:57:03;15.48;;;8.85;;
46897;SDS011;32646;50.958;6.258;2023-04-28T04:59:30;17.95;;;8.98;;
46897;SDS011;32646;50.958;6.258;2023-04-28T05:01:57;19.35;;;9.32;;
46897;SDS011;32646;50.958;6.258;2023-04-28T05:04:23;17.45;;;9.32;;
46897;SDS011;32646;50.958;6.258;2023-04-28T05:06:50;18.17;;;9.70;;
46897;SDS011;32646;50.958;6.258;2023-04-28T05:09:17;21.63;;;11.27;;
46897;SDS011;32646;50.958;6.258;2023-04-28T05:11:44;16.50;;;9.50;;
46897;SDS011;32646;50.958;6.258;2023-04-28T05:14:10;16.92;;;9.75;;
46897;SDS011;32646;50.958;6.258;2023-04-28T05:16:37;23.85;;;9.43;;
46897;SDS011;32646;50.958;6.258;2023-04-28T05:19:04;15.90;;;9.68;;
46897;SDS011;32646;50.958;6.258;2023-04-28T05:21:30;18.70;;;9.23;;
46897;SDS011;32646;50.958;6.258;2023-04-28T05:23:57;15.88;;;9.57;;
46897;SDS011;32646;50.958;6.258;2023-04-28T05:26:24;21.48;;;9.77;;
46897;SDS011;32646;50.958;6.258;2023-04-28T05:28:50;18.30;;;9.52;;
46897;SDS011;32646;50.958;6.258;2023-04-28T05:31:17;18.65;;;9.75;;
46897;SDS011;32646;50.958;6.258;2023-04-28T05:33:43;18.58;;;10.20;;
46897;SDS011;32646;50.958;6.258;2023-04-28T05:36:10;17.17;;;9.63;;
46897;SDS011;32646;50.958;6.258;2023-04-28T05:38:37;17.48;;;9.25;;
46897;SDS011;32646;50.958;6.258;2023-04-28T05:41:04;17.85;;;10.75;;
46897;SDS011;32646;50.958;6.258;2023-04-28T05:43:30;17.85;;;10.15;;
46897;SDS011;32646;50.958;6.258;2023-04-28T05:45:57;18.27;;;9.38;;
46897;SDS011;32646;50.958;6.258;2023-04-28T05:48:23;18.95;;;10.05;;
46897;SDS011;32646;50.958;6.258;2023-04-28T05:50:50;17.35;;;9.15;;
46897;SDS011;32646;50.958;6.258;2023-04-28T05:53:17;19.08;;;10.25;;
46897;SDS011;32646;50.958;6.258;2023-04-28T05:55:43;16.27;;;9.45;;
46897;SDS011;32646;50.958;6.258;2023-04-28T05:58:10;15.93;;;9.20;;
46897;SDS011;32646;50.958;6.258;2023-04-28T06:00:36;20.50;;;10.10;;
46897;SDS011;32646;50.958;6.258;2023-04-28T06:03:03;16.25;;;9.48;;
46897;SDS011;32646;50.958;6.258;2023-04-28T06:05:30;22.45;;;9.68;;
46897;SDS011;32646;50.958;6.258;2023-04-28T06:07:57;21.65;;;10.60;;
46897;SDS011;32646;50.958;6.258;2023-04-28T06:10:24;20.42;;;9.70;;
46897;SDS011;32646;50.958;6.258;2023-04-28T06:12:51;20.00;;;10.73;;
46897;SDS011;32646;50.958;6.258;2023-04-28T06:15:17;15.93;;;10.45;;
46897;SDS011;32646;50.958;6.258;2023-04-28T06:17:44;19.42;;;10.60;;
46897;SDS011;32646;50.958;6.258;2023-04-28T06:20:11;18.70;;;11.32;;
46897;SDS011;32646;50.958;6.258;2023-04-28T06:22:38;22.48;;;11.43;;
46897;SDS011;32646;50.958;6.258;2023-04-28T06:25:05;54.83;;;30.00;;
46897;SDS011;32646;50.958;6.258;2023-04-28T06:27:32;25.60;;;14.68;;
46897;SDS011;32646;50.958;6.258;2023-04-28T06:29:59;23.15;;;13.40;;
46897;SDS011;32646;50.958;6.258;2023-04-28T06:32:25;17.77;;;10.68;;
46897;SDS011;32646;50.958;6.258;2023-04-28T06:34:52;18.88;;;10.75;;
46897;SDS011;32646;50.958;6.258;2023-04-28T06:37:19;20.77;;;10.82;;
46897;SDS011;32646;50.958;6.258;2023-04-28T06:39:45;16.80;;;9.45;;
46897;SDS011;32646;50.958;6.258;2023-04-28T06:42:12;19.23;;;11.02;;
46897;SDS011;32646;50.958;6.258;2023-04-28T06:44:38;17.77;;;10.50;;
46897;SDS011;32646;50.958;6.258;2023-04-28T06:47:05;19.55;;;10.73;;
46897;SDS011;32646;50.958;6.258;2023-04-28T06:49:32;19.33;;;9.40;;
46897;SDS011;32646;50.958;6.258;2023-04-28T06:51:58;17.33;;;8.88;;
46897;SDS011;32646;50.958;6.258;2023-04-28T06:54:25;13.48;;;8.38;;
46897;SDS011;32646;50.958;6.258;2023-04-28T06:56:52;16.42;;;9.05;;
46897;SDS011;32646;50.958;6.258;2023-04-28T06:59:18;16.77;;;9.35;;
46897;SDS011;32646;50.958;6.258;2023-04-28T07:01:45;15.35;;;8.32;;
46897;SDS011;32646;50.958;6.258;2023-04-28T07:04:11;11.93;;;8.18;;
46897;SDS011;32646;50.958;6.258;2023-04-28T07:06:38;15.55;;;7.10;;
46897;SDS011;32646;50.958;6.258;2023-04-28T07:09:05;14.45;;;8.07;;
46897;SDS011;32646;50.958;6.258;2023-04-28T07:11:31;12.85;;;7.50;;
46897;SDS011;32646;50.958;6.258;2023-04-28T07:13:58;13.75;;;7.75;;
46897;SDS011;32646;50.958;6.258;2023-04-28T07:16:24;15.65;;;8.68;;
46897;SDS011;32646;50.958;6.258;2023-04-28T07:18:51;15.15;;;8.23;;
46897;SDS011;32646;50.958;6.258;2023-04-28T07:21:17;15.60;;;8.95;;
46897;SDS011;32646;50.958;6.258;2023-04-28T07:23:44;11.82;;;8.02;;
46897;SDS011;32646;50.958;6.258;2023-04-28T07:26:10;14.73;;;7.80;;
46897;SDS011;32646;50.958;6.258;2023-04-28T07:28:39;12.10;;;7.53;;
46897;SDS011;32646;50.958;6.258;2023-04-28T07:31:06;11.80;;;7.63;;
46897;SDS011;32646;50.958;6.258;2023-04-28T07:33:33;12.07;;;7.47;;
46897;SDS011;32646;50.958;6.258;2023-04-28T07:35:59;11.23;;;7.20;;
46897;SDS011;32646;50.958;6.258;2023-04-28T07:38:26;11.43;;;7.47;;
46897;SDS011;32646;50.958;6.258;2023-04-28T07:40:53;13.27;;;7.63;;
46897;SDS011;32646;50.958;6.258;2023-04-28T07:43:19;15.68;;;7.90;;
46897;SDS011;32646;50.958;6.258;2023-04-28T07:45:46;11.02;;;7.05;;
46897;SDS011;32646;50.958;6.258;2023-04-28T07:48:13;10.05;;;6.75;;
46897;SDS011;32646;50.958;6.258;2023-04-28T07:50:40;11.57;;;6.43;;
46897;SDS011;32646;50.958;6.258;2023-04-28T07:53:07;12.15;;;6.75;;
46897;SDS011;32646;50.958;6.258;2023-04-28T07:55:34;12.50;;;6.85;;
46897;SDS011;32646;50.958;6.258;2023-04-28T07:58:00;13.73;;;6.57;;
46897;SDS011;32646;50.958;6.258;2023-04-28T08:00:27;12.38;;;6.93;;
46897;SDS011;32646;50.958;6.258;2023-04-28T08:02:53;11.95;;;7.00;;
46897;SDS011;32646;50.958;6.258;2023-04-28T08:05:20;9.48;;;6.22;;
46897;SDS011;32646;50.958;6.258;2023-04-28T08:07:47;13.48;;;8.13;;
46897;SDS011;32646;50.958;6.258;2023-04-28T08:10:13;11.38;;;7.25;;
46897;SDS011;32646;50.958;6.258;2023-04-28T08:12:40;13.60;;;8.00;;
46897;SDS011;32646;50.958;6.258;2023-04-28T08:15:08;13.52;;;7.85;;
46897;SDS011;32646;50.958;6.258;2023-04-28T08:17:35;13.20;;;8.10;;
46897;SDS011;32646;50.958;6.258;2023-04-28T08:20:01;14.65;;;8.68;;
46897;SDS011;32646;50.958;6.258;2023-04-28T08:22:28;14.18;;;7.82;;
46897;SDS011;32646;50.958;6.258;2023-04-28T08:24:55;13.98;;;7.72;;
46897;SDS011;32646;50.958;6.258;2023-04-28T08:27:21;14.98;;;9.48;;
46897;SDS011;32646;50.958;6.258;2023-04-28T08:29:48;16.00;;;8.75;;
46897;SDS011;32646;50.958;6.258;2023-04-28T08:32:15;14.38;;;8.48;;
46897;SDS011;32646;50.958;6.258;2023-04-28T08:34:41;15.88;;;8.63;;
46897;SDS011;32646;50.958;6.258;2023-04-28T08:37:08;15.52;;;8.73;;
46897;SDS011;32646;50.958;6.258;2023-04-28T08:39:34;18.77;;;10.82;;
46897;SDS011;32646;50.958;6.258;2023-04-28T08:42:04;18.48;;;10.20;;
46897;SDS011;32646;50.958;6.258;2023-04-28T08:44:37;22.35;;;10.73;;
46897;SDS011;32646;50.958;6.258;2023-04-28T08:47:08;19.95;;;11.10;;
46897;SDS011;32646;50.958;6.258;2023-04-28T08:49:37;20.13;;;10.93;;
46897;SDS011;32646;50.958;6.258;2023-04-28T08:52:09;18.98;;;11.57;;
46897;SDS011;32646;50.958;6.258;2023-04-28T08:54:37;17.20;;;10.65;;
46897;SDS011;32646;50.958;6.258;2023-04-28T08:57:06;16.80;;;10.48;;
46897;SDS011;32646;50.958;6.258;2023-04-28T08:59:36;19.35;;;10.82;;
46897;SDS011;32646;50.958;6.258;2023-04-28T09:04:30;16.35;;;10.38;;
46897;SDS011;32646;50.958;6.258;2023-04-28T09:06:57;18.05;;;10.90;;
46897;SDS011;32646;50.958;6.258;2023-04-28T09:09:27;19.20;;;11.98;;
46897;SDS011;32646;50.958;6.258;2023-04-28T09:11:59;7.57;;;3.95;;
46897;SDS011;32646;50.958;6.258;2023-04-28T09:14:27;6.68;;;3.67;;
46897;SDS011;32646;50.958;6.258;2023-04-28T09:16:55;7.85;;;3.47;;
46897;SDS011;32646;50.958;6.258;2023-04-28T09:19:22;5.45;;;2.75;;
46897;SDS011;32646;50.958;6.258;2023-04-28T09:21:52;6.95;;;3.55;;
46897;SDS011;32646;50.958;6.258;2023-04-28T09:27:02;5.55;;;3.63;;
46897;SDS011;32646;50.958;6.258;2023-04-28T09:29:30;5.00;;;2.80;;
46897;SDS011;32646;50.958;6.258;2023-04-28T09:34:44;5.47;;;2.83;;
46897;SDS011;32646;50.958;6.258;2023-04-28T09:37:19;4.75;;;2.70;;
46897;SDS011;32646;50.958;6.258;2023-04-28T09:39:51;5.60;;;3.33;;
46897;SDS011;32646;50.958;6.258;2023-04-28T09:42:31;5.93;;;3.38;;
46897;SDS011;32646;50.958;6.258;2023-04-28T09:44:58;4.90;;;2.60;;
46897;SDS011;32646;50.958;6.258;2023-04-28T09:47:25;6.88;;;3.83;;
46897;SDS011;32646;50.958;6.258;2023-04-28T09:49:52;5.63;;;3.03;;
46897;SDS011;32646;50.958;6.258;2023-04-28T09:52:20;6.43;;;3.10;;
46897;SDS011;32646;50.958;6.258;2023-04-28T09:54:48;5.75;;;3.22;;
46897;SDS011;32646;50.958;6.258;2023-04-28T09:57:16;6.95;;;3.50;;
46897;SDS011;32646;50.958;6.258;2023-04-28T09:59:47;5.65;;;3.40;;
46897;SDS011;32646;50.958;6.258;2023-04-28T10:02:15;5.80;;;3.60;;
46897;SDS011;32646;50.958;6.258;2023-04-28T10:05:02;6.00;;;3.50;;
46897;SDS011;32646;50.958;6.258;2023-04-28T10:07:31;6.88;;;3.50;;
46897;SDS011;32646;50.958;6.258;2023-04-28T10:09:58;6.43;;;4.05;;
46897;SDS011;32646;50.958;6.258;2023-04-28T10:12:25;7.47;;;4.45;;
46897;SDS011;32646;50.958;6.258;2023-04-28T10:14:52;7.63;;;3.63;;
46897;SDS011;32646;50.958;6.258;2023-04-28T10:17:20;6.95;;;4.30;;
46897;SDS011;32646;50.958;6.258;2023-04-28T10:19:48;6.93;;;4.40;;
46897;SDS011;32646;50.958;6.258;2023-04-28T10:25:24;6.70;;;3.65;;
46897;SDS011;32646;50.958;6.258;2023-04-28T10:27:56;5.60;;;3.42;;
46897;SDS011;32646;50.958;6.258;2023-04-28T10:30:27;5.47;;;3.33;;
46897;SDS011;32646;50.958;6.258;2023-04-28T10:40:40;5.72;;;3.85;;
46897;SDS011;32646;50.958;6.258;2023-04-28T10:43:08;6.28;;;4.07;;
46897;SDS011;32646;50.958;6.258;2023-04-28T10:56:08;5.78;;;3.35;;
46897;SDS011;32646;50.958;6.258;2023-04-28T10:58:36;5.85;;;2.72;;
46897;SDS011;32646;50.958;6.258;2023-04-28T11:03:48;6.47;;;2.90;;
46897;SDS011;32646;50.958;6.258;2023-04-28T11:08:47;4.35;;;2.53;;
46897;SDS011;32646;50.958;6.258;2023-04-28T11:11:17;4.53;;;2.70;;
46897;SDS011;32646;50.958;6.258;2023-04-28T11:13:45;4.63;;;2.75;;
46897;SDS011;32646;50.958;6.258;2023-04-28T11:16:14;4.93;;;2.40;;
46897;SDS011;32646;50.958;6.258;2023-04-28T11:21:26;3.67;;;1.92;;
46897;SDS011;32646;50.958;6.258;2023-04-28T11:23:53;3.90;;;1.90;;
46897;SDS011;32646;50.958;6.258;2023-04-28T11:26:20;4.68;;;2.05;;
46897;SDS011;32646;50.958;6.258;2023-04-28T11:28:50;4.97;;;2.40;;
46897;SDS011;32646;50.958;6.258;2023-04-28T11:31:18;4.90;;;2.35;;
46897;SDS011;32646;50.958;6.258;2023-04-28T11:33:45;5.45;;;2.22;;
46897;SDS011;32646;50.958;6.258;2023-04-28T11:39:01;4.13;;;2.10;;
46897;SDS011;32646;50.958;6.258;2023-04-28T11:41:29;4.53;;;2.65;;
46897;SDS011;32646;50.958;6.258;2023-04-28T11:43:56;4.13;;;2.08;;
46897;SDS011;32646;50.958;6.258;2023-04-28T11:46:23;4.75;;;2.58;;
46897;SDS011;32646;50.958;6.258;2023-04-28T11:49:01;3.80;;;2.17;;
46897;SDS011;32646;50.958;6.258;2023-04-28T11:51:29;4.65;;;2.30;;
46897;SDS011;32646;50.958;6.258;2023-04-28T11:54:05;4.38;;;2.15;;
46897;SDS011;32646;50.958;6.258;2023-04-28T11:56:38;3.90;;;2.05;;
46897;SDS011;32646;50.958;6.258;2023-04-28T11:59:06;5.07;;;2.13;;
46897;SDS011;32646;50.958;6.258;2023-04-28T12:01:42;4.28;;;2.10;;
46897;SDS011;32646;50.958;6.258;2023-04-28T12:04:11;4.15;;;2.00;;
46897;SDS011;32646;50.958;6.258;2023-04-28T12:06:39;4.90;;;2.15;;
46897;SDS011;32646;50.958;6.258;2023-04-28T12:09:16;4.05;;;2.03;;
46897;SDS011;32646;50.958;6.258;2023-04-28T12:11:53;4.78;;;2.63;;
46897;SDS011;32646;50.958;6.258;2023-04-28T12:14:20;4.72;;;2.20;;
46897;SDS011;32646;50.958;6.258;2023-04-28T12:16:47;4.40;;;2.42;;
46897;SDS011;32646;50.958;6.258;2023-04-28T12:19:13;5.57;;;2.13;;
46897;SDS011;32646;50.958;6.258;2023-04-28T12:21:40;4.18;;;1.83;;
46897;SDS011;32646;50.958;6.258;2023-04-28T12:24:14;3.67;;;1.80;;
46897;SDS011;32646;50.958;6.258;2023-04-28T12:26:46;3.45;;;1.52;;
46897;SDS011;32646;50.958;6.258;2023-04-28T12:32:03;4.03;;;1.92;;
46897;SDS011;32646;50.958;6.258;2023-04-28T12:34:30;4.00;;;1.40;;
46897;SDS011;32646;50.958;6.258;2023-04-28T12:36:57;4.45;;;2.22;;
46897;SDS011;32646;50.958;6.258;2023-04-28T12:39:25;4.00;;;1.58;;
46897;SDS011;32646;50.958;6.258;2023-04-28T12:41:52;4.03;;;1.90;;
46897;SDS011;32646;50.958;6.258;2023-04-28T12:44:18;3.00;;;1.10;;
46897;SDS011;32646;50.958;6.258;2023-04-28T12:46:45;2.92;;;1.20;;
46897;SDS011;32646;50.958;6.258;2023-04-28T12:49:12;2.85;;;1.20;;
46897;SDS011;32646;50.958;6.258;2023-04-28T12:51:38;3.20;;;1.20;;
46897;SDS011;32646;50.958;6.258;2023-04-28T12:54:05;4.10;;;1.20;;
46897;SDS011;32646;50.958;6.258;2023-04-28T12:56:31;8.77;;;3.90;;
46897;SDS011;32646;50.958;6.258;2023-04-28T12:58:58;2.60;;;1.00;;
46897;SDS011;32646;50.958;6.258;2023-04-28T13:01:25;2.17;;;0.93;;
46897;SDS011;32646;50.958;6.258;2023-04-28T13:03:52;4.25;;;1.73;;
46897;SDS011;32646;50.958;6.258;2023-04-28T13:06:19;2.63;;;1.13;;
46897;SDS011;32646;50.958;6.258;2023-04-28T13:08:45;2.08;;;0.88;;
46897;SDS011;32646;50.958;6.258;2023-04-28T13:11:12;3.45;;;1.20;;
46897;SDS011;32646;50.958;6.258;2023-04-28T13:13:48;4.28;;;1.27;;
46897;SDS011;32646;50.958;6.258;2023-04-28T13:16:14;3.10;;;1.30;;
46897;SDS011;32646;50.958;6.258;2023-04-28T13:18:41;4.05;;;1.30;;
46897;SDS011;32646;50.958;6.258;2023-04-28T13:21:08;7.28;;;2.22;;
46897;SDS011;32646;50.958;6.258;2023-04-28T13:23:34;3.35;;;1.00;;
46897;SDS011;32646;50.958;6.258;2023-04-28T13:26:01;3.67;;;1.10;;
46897;SDS011;32646;50.958;6.258;2023-04-28T13:28:27;2.50;;;1.10;;
46897;SDS011;32646;50.958;6.258;2023-04-28T13:30:54;2.60;;;1.00;;
46897;SDS011;32646;50.958;6.258;2023-04-28T13:33:20;2.20;;;1.00;;
46897;SDS011;32646;50.958;6.258;2023-04-28T13:35:47;3.53;;;1.13;;
46897;SDS011;32646;50.958;6.258;2023-04-28T13:38:13;3.30;;;1.02;;
46897;SDS011;32646;50.958;6.258;2023-04-28T13:40:40;2.22;;;0.80;;
46897;SDS011;32646;50.958;6.258;2023-04-28T13:43:06;2.35;;;0.93;;
46897;SDS011;32646;50.958;6.258;2023-04-28T13:45:33;3.25;;;1.02;;
46897;SDS011;32646;50.958;6.258;2023-04-28T13:47:59;4.30;;;1.42;;
46897;SDS011;32646;50.958;6.258;2023-04-28T13:50:26;4.20;;;1.20;;
46897;SDS011;32646;50.958;6.258;2023-04-28T13:52:53;3.25;;;1.30;;
46897;SDS011;32646;50.958;6.258;2023-04-28T13:55:19;2.72;;;1.27;;
46897;SDS011;32646;50.958;6.258;2023-04-28T13:57:46;2.83;;;1.10;;
46897;SDS011;32646;50.958;6.258;2023-04-28T14:00:12;2.80;;;0.93;;
46897;SDS011;32646;50.958;6.258;2023-04-28T14:02:39;2.83;;;0.85;;
46897;SDS011;32646;50.958;6.258;2023-04-28T14:05:06;3.00;;;1.15;;
46897;SDS011;32646;50.958;6.258;2023-04-28T14:07:33;4.20;;;1.00;;
46897;SDS011;32646;50.958;6.258;2023-04-28T14:09:59;3.35;;;1.02;;
46897;SDS011;32646;50.958;6.258;2023-04-28T14:12:26;4.88;;;1.02;;
46897;SDS011;32646;50.958;6.258;2023-04-28T14:14:52;2.67;;;1.08;;
46897;SDS011;32646;50.958;6.258;2023-04-28T14:17:19;4.05;;;0.82;;
46897;SDS011;32646;50.958;6.258;2023-04-28T14:19:45;2.97;;;1.00;;
46897;SDS011;32646;50.958;6.258;2023-04-28T14:22:12;2.83;;;0.90;;
46897;SDS011;32646;50.958;6.258;2023-04-28T14:24:38;2.35;;;0.90;;
46897;SDS011;32646;50.958;6.258;2023-04-28T14:27:07;4.97;;;1.40;;
46897;SDS011;32646;50.958;6.258;2023-04-28T14:29:33;3.15;;;1.10;;
46897;SDS011;32646;50.958;6.258;2023-04-28T14:32:00;2.90;;;1.35;;
46897;SDS011;32646;50.958;6.258;2023-04-28T14:34:26;3.58;;;1.60;;
46897;SDS011;32646;50.958;6.258;2023-04-28T14:36:53;2.70;;;1.42;;
46897;SDS011;32646;50.958;6.258;2023-04-28T14:39:19;4.80;;;1.42;;
46897;SDS011;32646;50.958;6.258;2023-04-28T14:41:46;2.80;;;1.23;;
46897;SDS011;32646;50.958;6.258;2023-04-28T14:44:13;3.10;;;1.60;;
46897;SDS011;32646;50.958;6.258;2023-04-28T14:46:39;3.28;;;1.45;;
46897;SDS011;32646;50.958;6.258;2023-04-28T14:49:06;3.95;;;1.67;;
46897;SDS011;32646;50.958;6.258;2023-04-28T14:51:33;3.92;;;1.73;;
46897;SDS011;32646;50.958;6.258;2023-04-28T14:53:59;4.38;;;2.00;;
46897;SDS011;32646;50.958;6.258;2023-04-28T14:56:26;3.90;;;2.05;;
46897;SDS011;32646;50.958;6.258;2023-04-28T14:58:52;4.10;;;1.90;;
46897;SDS011;32646;50.958;6.258;2023-04-28T15:01:19;3.83;;;1.70;;
46897;SDS011;32646;50.958;6.258;2023-04-28T15:03:46;4.38;;;1.85;;
46897;SDS011;32646;50.958;6.258;2023-04-28T15:06:13;3.63;;;1.70;;
46897;SDS011;32646;50.958;6.258;2023-04-28T15:08:39;4.00;;;1.67;;
46897;SDS011;32646;50.958;6.258;2023-04-28T15:11:06;3.47;;;1.60;;
46897;SDS011;32646;50.958;6.258;2023-04-28T15:13:32;3.30;;;1.45;;
46897;SDS011;32646;50.958;6.258;2023-04-28T15:15:59;3.70;;;1.65;;
46897;SDS011;32646;50.958;6.258;2023-04-28T15:18:26;4.55;;;1.75;;
46897;SDS011;32646;50.958;6.258;2023-04-28T15:20:52;3.40;;;1.70;;